Time;durP1;ratioP1;P1;durP2;ratioP2;P2;SDS_P1;SDS_P2;PMS_P1;PMS_P2;Temp;Humidity;BMP_temperature;BMP_pressure;BME280_temperature;BME280_humidity;BME280_pressure;Samples;Min_cycle;Max_cycle;Signal;HPM_P1;HPM_P2
2023/04/13 14:12:39;;;;;;;4.05;3.10;;;;;;;24.05;30.37;99400.42;1499184;85;23627;-83
2023/04/13 14:15:11;;;;;;;5.37;2.90;;;;;;;23.20;31.75;99401.64;1486760;87;21561;-85
2023/04/13 14:17:38;;;;;;;6.20;3.20;;;;;;;22.74;32.81;99396.55;1462515;87;21478;-86
2023/04/13 14:20:10;;;;;;;4.87;2.95;;;;;;;22.48;32.92;99385.19;1463767;88;22321;-86
2023/04/13 14:22:38;;;;;;;7.20;3.75;;;;;;;22.24;33.18;99376.50;1478302;87;22218;-86
2023/04/13 14:25:09;;;;;;;6.70;2.95;;;;;;;21.89;34.05;99376.27;1469122;87;21687;-86
2023/04/13 14:27:36;;;;;;;7.65;3.95;;;;;;;21.71;33.78;99369.81;1475271;88;21463;-85
2023/04/13 14:30:04;;;;;;;7.50;3.40;;;;;;;21.69;34.58;99366.54;1430451;89;21471;-83
2023/04/13 14:32:31;;;;;;;5.25;4.30;;;;;;;21.61;35.36;99371.30;1438773;90;21515;-88
2023/04/13 14:34:58;;;;;;;5.58;2.67;;;;;;;21.53;35.05;99369.00;1455113;90;21442;-88
2023/04/13 14:37:26;;;;;;;5.20;2.87;;;;;;;21.45;35.14;99361.33;1434490;90;21607;-89
2023/04/13 14:39:55;;;;;;;5.25;2.80;;;;;;;21.49;35.48;99362.49;1453287;90;21508;-87
2023/04/13 14:42:23;;;;;;;8.75;3.00;;;;;;;21.52;35.51;99360.66;1437844;90;21606;-86
2023/04/13 14:44:52;;;;;;;4.40;3.33;;;;;;;21.29;35.00;99368.83;1449629;90;21516;-87
2023/04/13 14:47:18;;;;;;;5.15;2.70;;;;;;;21.51;34.97;99364.39;1431415;90;21415;-88
2023/04/13 14:49:46;;;;;;;6.37;3.25;;;;;;;21.43;33.58;99357.25;1447549;90;21442;-88
2023/04/13 14:52:13;;;;;;;4.05;2.20;;;;;;;21.93;35.27;99357.22;1436123;91;21481;-87
2023/04/13 14:54:39;;;;;;;5.22;2.80;;;;;;;22.35;34.70;99359.40;1452884;90;21523;-87
2023/04/13 14:57:05;;;;;;;3.62;2.20;;;;;;;22.72;34.34;99358.75;1443820;90;21572;-87
2023/04/13 14:59:32;;;;;;;8.15;6.22;;;;;;;22.70;33.57;99359.02;1449948;90;21428;-87
2023/04/13 15:01:59;;;;;;;6.83;4.72;;;;;;;22.40;33.79;99354.08;1445694;90;22448;-87
2023/04/13 15:04:26;;;;;;;11.05;4.25;;;;;;;22.26;34.60;99354.17;1453190;90;22259;-87
2023/04/13 15:06:53;;;;;;;5.05;4.17;;;;;;;22.15;34.76;99360.45;1433342;91;21481;-88
2023/04/13 15:09:19;;;;;;;6.15;3.50;;;;;;;21.83;33.87;99363.79;1448529;90;21590;-88
2023/04/13 15:11:45;;;;;;;7.03;3.42;;;;;;;21.71;34.74;99359.04;1433795;90;21563;-89
2023/04/13 15:14:11;;;;;;;4.17;2.37;;;;;;;21.42;35.04;99356.44;1432099;90;21502;-87
2023/04/13 15:16:37;;;;;;;9.48;4.47;;;;;;;21.03;35.69;99363.53;1441504;91;21667;-88
2023/04/13 15:19:04;;;;;;;20.45;12.70;;;;;;;20.96;35.75;99365.04;1429165;90;21560;-88
2023/04/13 15:21:30;;;;;;;12.73;6.67;;;;;;;20.83;35.91;99366.16;1437232;91;21541;-89
2023/04/13 15:23:56;;;;;;;5.10;3.42;;;;;;;20.81;36.49;99366.11;1436830;91;21614;-88
2023/04/13 15:26:23;;;;;;;17.45;12.80;;;;;;;20.66;36.29;99360.73;1418135;91;22435;-88
2023/04/13 15:28:49;;;;;;;15.10;10.58;;;;;;;20.45;36.60;99364.03;1452774;90;21488;-86
2023/04/13 15:31:15;;;;;;;7.40;3.75;;;;;;;20.05;37.19;99370.17;1441708;91;21657;-86
2023/04/13 15:33:42;;;;;;;4.33;3.60;;;;;;;19.83;38.03;99378.84;1438738;91;22994;-87
2023/04/13 15:36:15;;;;;;;8.35;3.87;;;;;;;19.83;38.03;99378.84;1440306;91;21665;-87
2023/04/13 15:38:42;;;;;;;7.67;4.50;;;;;;;19.73;37.89;99374.56;1446710;91;21415;-86
2023/04/13 15:41:14;;;;;;;4.12;3.27;;;;;;;19.51;38.52;99370.27;1434506;91;21510;-87
2023/04/13 15:43:37;;;;;;;7.60;4.22;;;;;;;19.27;38.81;99373.42;1440805;91;21429;-87
2023/04/13 15:46:04;;;;;;;8.50;4.17;;;;;;;19.01;39.19;99385.88;1432854;91;21408;-87
2023/04/13 15:48:31;;;;;;;8.70;4.70;;;;;;;18.69;39.75;99382.05;1435074;91;22479;-87
2023/04/13 15:51:00;;;;;;;11.90;5.70;;;;;;;18.49;40.00;99385.79;1435875;91;21531;-87
2023/04/13 15:53:27;;;;;;;6.27;4.63;;;;;;;18.32;40.37;99387.44;1436089;91;21384;-87
2023/04/13 15:55:53;;;;;;;6.25;4.05;;;;;;;18.13;40.83;99392.51;1439598;91;21459;-86
2023/04/13 15:58:19;;;;;;;8.60;4.55;;;;;;;17.97;41.17;99389.88;1440900;91;21526;-86
2023/04/13 16:00:46;;;;;;;7.28;3.98;;;;;;;17.91;41.51;99388.89;1435669;91;21451;-87
2023/04/13 16:03:12;;;;;;;9.35;4.58;;;;;;;18.10;41.83;99388.41;1445297;91;21531;-86
2023/04/13 16:05:38;;;;;;;6.42;4.37;;;;;;;18.39;41.80;99392.21;1435016;91;21451;-86
2023/04/13 16:08:05;;;;;;;10.43;4.67;;;;;;;18.57;41.56;99390.56;1436913;91;21592;-87
2023/04/13 16:10:31;;;;;;;9.55;4.53;;;;;;;18.61;41.42;99385.03;1437031;91;21467;-85
2023/04/13 16:12:58;;;;;;;12.60;6.87;;;;;;;18.51;41.54;99384.77;1426691;90;21496;-84
2023/04/13 16:15:25;;;;;;;8.88;4.45;;;;;;;18.42;41.47;99389.09;1438813;91;21378;-86
2023/04/13 16:17:52;;;;;;;6.67;4.85;;;;;;;18.39;41.53;99388.19;1445488;91;21356;-84
2023/04/13 16:20:19;;;;;;;7.33;4.05;;;;;;;18.32;41.75;99387.44;1433799;91;21496;-86
2023/04/13 16:22:48;;;;;;;4.92;3.55;;;;;;;18.22;42.26;99395.19;1434484;91;21636;-87
2023/04/13 16:25:17;;;;;;;8.85;3.62;;;;;;;18.06;42.60;99387.73;1434615;91;22339;-87
2023/04/13 16:27:46;;;;;;;9.00;3.72;;;;;;;17.80;42.79;99387.75;1439034;91;21488;-86
2023/04/13 16:30:16;;;;;;;5.95;3.70;;;;;;;17.65;43.22;99389.92;1439432;91;22620;-86
2023/04/13 16:32:44;;;;;;;6.43;4.20;;;;;;;17.56;43.48;99385.89;1418194;91;21503;-85
2023/04/13 16:35:11;;;;;;;5.53;3.83;;;;;;;17.43;43.78;99384.13;1434377;91;21452;-86
2023/04/13 16:37:41;;;;;;;5.83;4.13;;;;;;;17.29;44.13;99383.91;1443351;91;21533;-86
2023/04/13 16:40:10;;;;;;;6.50;3.55;;;;;;;17.12;44.53;99381.79;1417420;91;21622;-86
2023/04/13 16:42:39;;;;;;;5.90;3.80;;;;;;;16.96;44.68;99382.29;1440635;91;21466;-87
2023/04/13 16:45:08;;;;;;;5.70;4.30;;;;;;;16.76;45.18;99374.38;1440071;91;21459;-86
2023/04/13 16:47:36;;;;;;;8.83;4.73;;;;;;;17.10;45.76;99369.14;1424339;91;21665;-85
2023/04/13 16:50:05;;;;;;;6.80;4.50;;;;;;;16.83;48.15;99371.66;1434688;91;21496;-86
2023/04/13 16:52:35;;;;;;;13.93;4.53;;;;;;;16.63;49.01;99379.25;1439883;91;21654;-86
2023/04/13 16:55:04;;;;;;;13.03;4.55;;;;;;;16.58;47.69;99379.06;1444975;91;21444;-86
2023/04/13 16:57:31;;;;;;;8.93;4.97;;;;;;;16.50;47.40;99388.64;1434831;91;22529;-87
2023/04/13 17:00:05;;;;;;;7.13;5.50;;;;;;;16.02;48.22;99392.98;1431522;91;21619;-86
2023/04/13 17:02:31;;;;;;;10.23;5.30;;;;;;;15.67;48.53;99395.86;1439369;91;21629;-86
2023/04/13 17:04:57;;;;;;;11.70;5.77;;;;;;;15.38;48.87;99397.08;1442686;91;22309;-86
2023/04/13 17:07:25;;;;;;;12.03;6.97;;;;;;;15.12;49.13;99407.20;1438167;91;21438;-86
2023/04/13 17:09:51;;;;;;;20.77;10.17;;;;;;;14.84;49.32;99408.13;1443086;91;21518;-86
2023/04/13 17:12:18;;;;;;;17.87;9.37;;;;;;;14.64;49.58;99402.77;1444361;90;21487;-87
2023/04/13 17:14:45;;;;;;;11.53;8.30;;;;;;;14.47;49.93;99400.58;1472275;87;21522;-86
2023/04/13 17:17:11;;;;;;;17.67;10.20;;;;;;;14.28;50.50;99398.97;1473179;88;21498;-86
2023/04/13 17:19:37;;;;;;;19.37;10.00;;;;;;;14.10;51.18;99407.98;1477598;88;21515;-86
2023/04/13 17:22:04;;;;;;;20.77;7.93;;;;;;;13.91;51.79;99405.48;1478188;87;21502;-87
2023/04/13 17:24:30;;;;;;;20.17;9.73;;;;;;;13.76;51.96;99406.92;1489813;87;22248;-87
2023/04/13 17:26:57;;;;;;;31.63;13.50;;;;;;;13.59;52.71;99402.38;1474035;87;21589;-85
2023/04/13 17:29:23;;;;;;;21.37;11.50;;;;;;;13.46;52.68;99403.08;1488564;88;21426;-85
2023/04/13 17:31:49;;;;;;;33.57;20.03;;;;;;;13.35;53.20;99407.61;1480342;88;21747;-87
2023/04/13 17:34:16;;;;;;;29.30;18.27;;;;;;;13.24;53.53;99407.56;1478147;88;21412;-86
2023/04/13 17:36:42;;;;;;;33.43;20.40;;;;;;;13.14;53.91;99399.58;1480406;88;21618;-86
2023/04/13 17:39:08;;;;;;;22.23;14.13;;;;;;;13.02;53.97;99404.06;1482086;88;21375;-87
2023/04/13 17:41:35;;;;;;;24.30;14.13;;;;;;;12.90;54.43;99404.24;1477379;88;21419;-86
2023/04/13 17:44:01;;;;;;;22.43;14.23;;;;;;;12.80;54.54;99407.69;1469842;88;21411;-86
2023/04/13 17:46:28;;;;;;;17.73;9.93;;;;;;;12.69;54.62;99406.36;1481410;88;22291;-87
2023/04/13 17:48:58;;;;;;;28.37;12.87;;;;;;;12.60;55.00;99412.28;1481528;88;21419;-86
2023/04/13 17:51:25;;;;;;;19.50;11.10;;;;;;;12.51;55.36;99406.73;1490598;88;21471;-87
2023/04/13 17:53:51;;;;;;;18.20;8.73;;;;;;;12.44;55.93;99416.45;1492264;87;21523;-86
2023/04/13 17:56:18;;;;;;;12.57;8.80;;;;;;;12.36;56.15;99417.88;1484253;88;21470;-87
2023/04/13 17:58:44;;;;;;;27.07;16.30;;;;;;;12.27;56.49;99418.98;1481387;88;21404;-86
2023/04/13 18:01:11;;;;;;;21.53;13.13;;;;;;;12.19;56.95;99416.72;1484506;87;21390;-86
2023/04/13 18:03:37;;;;;;;24.13;12.80;;;;;;;12.12;56.87;99421.63;1473413;87;22010;-86
2023/04/13 18:06:06;;;;;;;21.83;14.97;;;;;;;12.02;57.10;99417.90;1483289;87;21723;-86
2023/04/13 18:08:33;;;;;;;14.73;10.00;;;;;;;11.92;57.47;99418.68;1472495;87;21655;-86
2023/04/13 18:10:59;;;;;;;32.10;19.03;;;;;;;11.84;57.46;99424.03;1486648;87;21567;-86
2023/04/13 18:13:27;;;;;;;24.40;13.57;;;;;;;11.78;58.36;99420.77;1479772;87;21493;-87
2023/04/13 18:15:54;;;;;;;14.90;9.53;;;;;;;11.69;58.50;99422.16;1483109;87;21509;-85
2023/04/13 18:18:23;;;;;;;21.30;11.53;;;;;;;11.62;58.23;99427.84;1483888;88;22602;-86
2023/04/13 18:20:55;;;;;;;20.47;12.73;;;;;;;11.56;58.41;99432.53;1480029;87;22160;-85
2023/04/13 18:23:20;;;;;;;28.40;17.20;;;;;;;11.50;58.71;99425.30;1478476;87;21449;-86
2023/04/13 18:25:50;;;;;;;26.43;16.67;;;;;;;11.42;59.09;99430.19;1481995;87;21610;-87
2023/04/13 18:28:16;;;;;;;19.83;10.90;;;;;;;11.36;59.30;99431.38;1483089;87;22484;-86
2023/04/13 18:30:44;;;;;;;19.50;10.17;;;;;;;11.55;59.17;99432.22;1483581;88;21449;-86
2023/04/13 18:33:11;;;;;;;9.47;6.83;;;;;;;11.60;58.84;99427.22;1479761;87;21419;-86
2023/04/13 18:35:49;;;;;;;17.83;11.30;;;;;;;11.52;58.94;99426.78;1480158;87;21367;-86
2023/04/13 18:38:15;;;;;;;15.17;9.33;;;;;;;11.33;60.44;99422.45;1487882;88;22313;-87
2023/04/13 18:40:42;;;;;;;13.80;8.20;;;;;;;11.18;60.52;99425.86;1487534;87;21556;-85
2023/04/13 18:43:08;;;;;;;16.23;7.23;;;;;;;11.09;60.13;99426.92;1489210;87;21411;-86
2023/04/13 18:45:34;;;;;;;21.73;10.83;;;;;;;11.06;60.07;99431.25;1477895;88;22335;-87
2023/04/13 18:48:01;;;;;;;17.63;10.47;;;;;;;11.07;60.30;99437.67;1483712;87;21455;-85
2023/04/13 18:50:28;;;;;;;19.00;10.20;;;;;;;11.06;60.98;99433.89;1487507;87;22321;-87
2023/04/13 18:52:55;;;;;;;12.83;9.17;;;;;;;11.06;60.82;99439.19;1482061;87;21441;-86
2023/04/13 18:55:23;;;;;;;40.67;23.90;;;;;;;11.06;61.12;99438.69;1477598;87;21620;-87
2023/04/13 18:57:50;;;;;;;76.40;17.40;;;;;;;11.06;61.19;99436.04;1483964;87;21499;-87
2023/04/13 19:00:18;;;;;;;17.03;9.93;;;;;;;11.07;60.85;99439.50;1479937;88;21440;-87
2023/04/13 19:02:51;;;;;;;16.60;10.60;;;;;;;11.06;61.09;99438.69;1479403;87;21404;-87
2023/04/13 19:05:18;;;;;;;17.27;9.77;;;;;;;11.05;61.53;99441.53;1487084;87;21500;-87
2023/04/13 19:07:59;;;;;;;16.57;10.57;;;;;;;11.02;61.72;99439.23;1479415;87;21404;-88
2023/04/13 19:10:33;;;;;;;16.35;9.00;;;;;;;11.03;61.86;99446.98;1484160;88;21626;-88
2023/04/13 19:12:59;;;;;;;20.57;11.33;;;;;;;11.03;61.56;99449.63;1486285;88;21611;-86
2023/04/13 19:15:25;;;;;;;16.30;8.90;;;;;;;11.05;62.11;99446.82;1485355;87;21544;-86
2023/04/13 19:17:52;;;;;;;26.63;13.50;;;;;;;11.04;62.11;99453.09;1477285;88;21664;-85
2023/04/13 19:20:21;;;;;;;17.83;9.67;;;;;;;11.06;61.95;99457.73;1485389;87;22320;-85
2023/04/13 19:22:47;;;;;;;22.67;13.03;;;;;;;11.05;61.84;99454.77;1482803;87;21426;-86
2023/04/13 19:25:14;;;;;;;16.87;11.23;;;;;;;11.06;61.73;99438.69;1488963;87;23376;-86
2023/04/13 19:27:43;;;;;;;10.63;6.00;;;;;;;11.08;62.09;99427.94;1471407;88;21566;-87
2023/04/13 19:30:14;;;;;;;24.37;14.97;;;;;;;11.10;62.52;99428.56;1481764;87;21367;-86
2023/04/13 19:32:43;;;;;;;15.00;7.90;;;;;;;11.11;63.53;99427.58;1486564;87;21536;-86
2023/04/13 19:35:11;;;;;;;7.00;5.37;;;;;;;11.13;63.39;99428.20;1488034;87;21447;-86
2023/04/13 19:37:37;;;;;;;21.47;13.03;;;;;;;11.16;63.82;99425.20;1484617;87;21389;-89
2023/04/13 19:40:14;;;;;;;11.10;6.77;;;;;;;11.21;63.19;99430.81;1485721;88;22301;-88
2023/04/13 19:42:43;;;;;;;18.43;10.60;;;;;;;11.25;63.11;99432.62;1480517;87;21448;-87
2023/04/13 19:45:11;;;;;;;13.87;9.60;;;;;;;11.27;62.78;99429.28;1491888;88;21648;-86
2023/04/13 20:06:38;;;;;;;18.50;10.70;;;;;;;11.17;62.48;99407.02;1454203;90;21506;-84
2023/04/13 20:09:13;;;;;;;22.70;11.87;;;;;;;11.11;62.64;99405.58;1449378;90;22647;-87
2023/04/13 20:11:40;;;;;;;26.60;12.93;;;;;;;11.05;62.81;99394.69;1452452;90;22387;-86
2023/04/13 20:14:08;;;;;;;28.80;12.67;;;;;;;11.02;63.35;99394.22;1442567;90;21684;-86
2023/04/13 20:16:34;;;;;;;22.83;12.00;;;;;;;11.00;63.59;99388.27;1442354;90;22309;-86
2023/04/13 20:19:01;;;;;;;29.50;12.70;;;;;;;11.00;64.09;99386.94;1446874;90;22625;-86
2023/04/13 20:21:31;;;;;;;22.10;11.90;;;;;;;10.98;64.10;99378.34;1445323;90;22426;-86
2023/04/13 20:24:02;;;;;;;18.40;9.20;;;;;;;10.96;64.01;99376.36;1446281;90;22082;-85
2023/04/13 20:26:30;;;;;;;13.13;7.33;;;;;;;10.95;64.18;99375.55;1434227;90;21472;-85
2023/04/13 20:29:00;;;;;;;10.20;6.20;;;;;;;10.96;64.16;99373.71;1451530;90;22478;-85
2023/04/13 20:31:28;;;;;;;12.87;6.13;;;;;;;10.94;63.86;99376.55;1451234;90;22426;-85
2023/04/13 20:33:55;;;;;;;11.27;6.53;;;;;;;10.96;63.46;99375.03;1418592;90;21347;-85
2023/04/13 20:36:23;;;;;;;17.70;10.00;;;;;;;10.97;63.23;99372.73;1431509;90;21458;-85
2023/04/13 20:38:53;;;;;;;13.97;6.93;;;;;;;10.98;63.50;99370.40;1463838;88;21484;-85
2023/04/13 20:41:20;;;;;;;12.33;7.75;;;;;;;10.99;63.28;99375.53;1485257;87;21648;-86
2023/04/13 20:43:49;;;;;;;11.83;6.93;;;;;;;11.01;63.11;99374.02;1479522;87;21501;-86
2023/04/13 20:46:15;;;;;;;11.10;6.57;;;;;;;11.02;63.27;99379.66;1483492;87;21441;-86
2023/04/13 20:48:43;;;;;;;13.40;6.90;;;;;;;11.01;63.09;99372.19;1485399;87;21501;-86
2023/04/13 20:51:12;;;;;;;11.10;7.83;;;;;;;11.02;63.34;99380.98;1485565;87;21537;-88
2023/04/13 20:53:38;;;;;;;15.27;7.37;;;;;;;11.01;62.72;99384.10;1482490;88;21448;-88
2023/04/13 20:56:08;;;;;;;12.07;6.97;;;;;;;11.00;62.59;99385.62;1465730;88;21382;-87
2023/04/13 20:58:36;;;;;;;15.53;6.97;;;;;;;10.98;62.97;99383.13;1491986;87;21529;-85
2023/04/13 21:01:03;;;;;;;11.63;7.33;;;;;;;10.95;62.76;99378.70;1483014;88;21427;-86
2023/04/13 21:03:30;;;;;;;10.37;7.13;;;;;;;10.91;63.14;99372.94;1477789;87;21434;-86
2023/04/13 21:05:57;;;;;;;9.60;6.60;;;;;;;10.87;63.04;99373.45;1480056;87;21433;-85
2023/04/13 21:08:24;;;;;;;11.87;7.37;;;;;;;10.80;63.16;99372.83;1480474;88;21501;-86
2023/04/13 21:10:50;;;;;;;11.60;8.30;;;;;;;10.75;63.48;99368.55;1464109;88;21477;-86
2023/04/13 21:13:17;;;;;;;14.67;7.60;;;;;;;10.71;63.86;99375.20;1479945;87;22102;-85
2023/04/13 21:15:44;;;;;;;10.27;6.73;;;;;;;10.68;64.27;99376.87;1477262;87;21522;-86
2023/04/13 21:18:10;;;;;;;9.67;7.57;;;;;;;10.68;64.52;99386.14;1481796;88;21612;-86
2023/04/13 21:20:42;;;;;;;11.30;6.77;;;;;;;10.66;64.46;99378.86;1465990;88;22511;-86
2023/04/13 21:23:09;;;;;;;10.07;6.60;;;;;;;10.61;64.05;99377.23;1480643;87;21582;-86
2023/04/13 21:25:36;;;;;;;18.40;7.80;;;;;;;10.59;64.13;99377.92;1467523;88;21574;-86
2023/04/13 21:28:02;;;;;;;11.47;7.73;;;;;;;10.57;64.26;99382.55;1474841;87;21456;-87
2023/04/13 21:30:29;;;;;;;10.90;7.20;;;;;;;10.51;64.02;99373.98;1471580;88;21464;-87
2023/04/13 21:32:55;;;;;;;11.40;6.70;;;;;;;10.47;63.97;99366.05;1474380;88;21658;-86
2023/04/13 21:35:21;;;;;;;10.23;7.00;;;;;;;10.42;64.07;99363.95;1475687;87;21889;-84
2023/04/13 21:37:47;;;;;;;12.00;7.63;;;;;;;10.38;64.24;99358.15;1479084;85;21531;-83
2023/04/13 21:40:15;;;;;;;9.23;7.03;;;;;;;10.37;64.33;99354.38;1495237;87;21404;-87
2023/04/13 21:42:41;;;;;;;13.10;7.53;;;;;;;10.31;65.01;99346.63;1477108;88;21441;-87
2023/04/13 21:45:08;;;;;;;10.40;7.77;;;;;;;10.28;64.99;99347.48;1468268;87;21522;-87
2023/04/13 21:47:34;;;;;;;10.10;7.57;;;;;;;10.25;64.90;99342.00;1473787;87;21610;-87
2023/04/13 21:50:01;;;;;;;14.67;8.43;;;;;;;10.24;65.50;99350.94;1472156;88;21493;-86
2023/04/13 21:52:28;;;;;;;15.83;8.83;;;;;;;10.21;65.22;99343.31;1475324;88;22343;-85
2023/04/13 21:54:54;;;;;;;12.73;9.07;;;;;;;10.20;65.76;99346.97;1476004;88;21663;-85
2023/04/13 21:57:20;;;;;;;12.77;8.73;;;;;;;10.19;66.22;99342.69;1469402;87;21500;-86
2023/04/13 21:59:46;;;;;;;16.13;9.03;;;;;;;10.18;65.39;99334.41;1475619;87;21427;-87
2023/04/13 22:02:13;;;;;;;13.77;8.80;;;;;;;10.18;65.83;99337.05;1471374;87;21614;-87
2023/04/13 22:04:39;;;;;;;16.63;9.33;;;;;;;10.20;65.97;99337.72;1472495;87;21426;-86
2023/04/13 22:07:05;;;;;;;13.57;8.90;;;;;;;10.23;66.04;99336.05;1470592;88;21588;-88
2023/04/13 22:09:31;;;;;;;17.47;8.03;;;;;;;10.25;65.92;99330.09;1473747;88;21668;-86
2023/04/13 22:11:58;;;;;;;18.10;9.87;;;;;;;10.26;65.65;99330.41;1471898;88;21493;-86
2023/04/13 22:14:24;;;;;;;15.47;9.00;;;;;;;10.29;65.67;99322.67;1479807;87;21375;-78
2023/04/13 22:16:51;;;;;;;12.70;9.00;;;;;;;10.30;65.40;99323.83;1466589;88;21583;-81
2023/04/13 22:23:14;;;;;;;13.60;9.23;;;;;;;10.29;65.86;99319.52;1470759;88;22425;-81
2023/04/13 22:25:41;;;;;;;12.50;9.07;;;;;;;10.26;65.58;99314.55;1482574;88;21478;-82
2023/04/13 22:28:07;;;;;;;16.33;8.37;;;;;;;10.22;65.65;99321.19;1472504;88;22351;-82
2023/04/13 22:30:39;;;;;;;10.20;8.03;;;;;;;10.18;66.17;99319.87;1470498;87;22090;-83
2023/04/13 22:33:02;;;;;;;11.87;8.70;;;;;;;10.15;66.21;99309.13;1476860;88;21426;-82
2023/04/13 22:35:28;;;;;;;18.17;9.03;;;;;;;10.12;65.91;99312.63;1473347;88;21633;-83
2023/04/13 22:37:54;;;;;;;14.37;8.23;;;;;;;10.09;65.75;99312.97;1471104;87;22304;-82
2023/04/13 22:40:20;;;;;;;12.50;7.50;;;;;;;10.07;65.84;99295.13;1476510;88;21478;-82
2023/04/13 22:42:47;;;;;;;9.47;7.43;;;;;;;10.04;66.06;99296.32;1472536;88;21627;-82
2023/04/13 22:45:13;;;;;;;8.67;6.77;;;;;;;10.03;66.01;99295.16;1476479;88;22380;-82
2023/04/13 22:47:39;;;;;;;11.20;7.40;;;;;;;10.01;66.33;99297.98;1482805;88;22504;-82
2023/04/13 22:50:07;;;;;;;10.03;6.60;;;;;;;10.01;66.23;99300.63;1475952;88;21954;-82
2023/04/13 22:52:33;;;;;;;10.90;7.00;;;;;;;10.01;66.40;99298.46;1473700;88;21633;-82
2023/04/13 22:54:59;;;;;;;11.50;6.43;;;;;;;10.03;66.67;99296.48;1469564;88;22269;-81
2023/04/13 22:57:25;;;;;;;10.90;7.10;;;;;;;10.06;66.53;99297.45;1473296;88;21500;-82
2023/04/13 22:59:51;;;;;;;11.87;7.50;;;;;;;10.08;66.73;99294.97;1479501;88;21456;-82
2023/04/13 23:02:17;;;;;;;9.40;7.47;;;;;;;10.11;66.63;99291.16;1477846;87;22558;-83
2023/04/13 23:04:44;;;;;;;16.20;8.30;;;;;;;10.14;67.00;99298.24;1466350;88;21456;-82
2023/04/13 23:07:10;;;;;;;12.93;9.37;;;;;;;10.17;66.49;99295.25;1469546;87;21685;-82
2023/04/13 23:09:36;;;;;;;12.73;9.23;;;;;;;10.19;66.07;99290.31;1470814;88;21441;-82
2023/04/13 23:12:03;;;;;;;18.77;10.60;;;;;;;10.20;66.68;99291.95;1471973;87;21478;-81
2023/04/13 23:14:29;;;;;;;16.53;9.70;;;;;;;10.19;66.04;99294.28;1474903;88;22307;-82
2023/04/13 23:16:56;;;;;;;16.90;10.70;;;;;;;10.17;66.24;99286.50;1478463;87;22498;-82
2023/04/13 23:19:23;;;;;;;16.43;11.47;;;;;;;10.14;66.15;99278.41;1479533;87;21700;-81
2023/04/13 23:21:49;;;;;;;16.90;11.90;;;;;;;10.13;66.28;99283.39;1473084;88;21419;-83
2023/04/13 23:24:16;;;;;;;32.77;22.23;;;;;;;10.12;66.16;99279.58;1468809;88;21571;-83
2023/04/13 23:26:42;;;;;;;17.20;11.87;;;;;;;10.10;66.21;99266.55;1476718;88;23033;-82
2023/04/13 23:29:09;;;;;;;20.80;15.03;;;;;;;10.08;66.19;99276.46;1475378;88;22409;-80
2023/04/13 23:31:35;;;;;;;22.57;14.10;;;;;;;10.07;66.28;99264.73;1470109;87;21434;-82
2023/04/13 23:34:01;;;;;;;24.67;16.37;;;;;;;10.03;66.59;99264.76;1470579;87;21478;-82
2023/04/13 23:36:27;;;;;;;21.83;14.17;;;;;;;10.00;66.34;99264.60;1472429;88;22417;-83
2023/04/13 23:38:54;;;;;;;15.70;9.77;;;;;;;9.98;66.93;99266.58;1476155;87;21589;-80
2023/04/13 23:41:21;;;;;;;11.73;8.20;;;;;;;9.97;67.05;99264.13;1478718;87;21513;-81
2023/04/13 23:43:47;;;;;;;19.83;12.90;;;;;;;9.98;67.12;99270.55;1465012;88;21521;-82
2023/04/13 23:46:14;;;;;;;16.10;11.43;;;;;;;9.98;67.12;99270.55;1470881;88;21449;-82
2023/04/13 23:48:40;;;;;;;33.80;20.77;;;;;;;10.00;66.93;99267.75;1473503;88;21404;-82
2023/04/13 23:51:06;;;;;;;11.33;8.73;;;;;;;10.00;66.87;99261.14;1465195;87;21585;-82
2023/04/13 23:53:33;;;;;;;9.27;7.10;;;;;;;9.98;66.69;99259.16;1476674;87;21448;-82
2023/04/13 23:55:59;;;;;;;14.43;9.93;;;;;;;9.97;66.87;99265.45;1469202;88;22387;-82
2023/04/13 23:58:26;;;;;;;12.23;9.33;;;;;;;9.92;66.70;99261.98;1484970;87;21449;-82
